This is the latest recevied weather packets stored in our database for station/object OE5OVL-13. If no packets are shown the sender has not sent any weather packets the latest 10 day(s).
| Time | Temp. | Humidity | Pressure | Rain* | Wind** | Luminosity | Snow |
|---|---|---|---|---|---|---|---|
| 1777445322 | 12.78° C | 32% | 720.9 hPa | 0 mm | - | - | - |
| 1777407940 | 15.56° C | 39% | 723.8 hPa | 0 mm | - | - | - |
| 1777407028 | 15.56° C | 40% | 723.7 hPa | 0 mm | - | - | - |
| 1777405205 | 15.56° C | 38% | 723.8 hPa | 0 mm | - | - | - |
| 1777403381 | 16.67° C | 36% | 724.9 hPa | 0 mm | - | - | - |
| 1777402469 | 17.22° C | 35% | 725.4 hPa | 0 mm | - | - | - |
| 1777401558 | 17.78° C | 35% | 726.2 hPa | 0 mm | - | - | - |
| 1777400646 | 17.78° C | 35% | 726.6 hPa | 0 mm | - | - | - |
| 1777399734 | 18.33° C | 35% | 727.2 hPa | 0 mm | - | - | - |
| 1777398822 | 19.44° C | 33% | 728.4 hPa | 0 mm | - | - | - |
| 1777397911 | 20.56° C | 31% | 729.7 hPa | 0 mm | - | - | - |
| 1777396999 | 22.22° C | 29% | 731.6 hPa | 0 mm | - | - | - |
| 1777396087 | 24.44° C | 28% | 733.8 hPa | 0 mm | - | - | - |
| 1777395176 | 23.33° C | 28% | 732.6 hPa | 0 mm | - | - | - |
| 1777394264 | 25° C | 26% | 734.4 hPa | 0 mm | - | - | - |
| 1777393352 | 27.22° C | 24% | 737.1 hPa | 0 mm | - | - | - |
| 1777392440 | 26.11° C | 24% | 735.9 hPa | 0 mm | - | - | - |
| 1777391528 | 28.89° C | 21% | 739.4 hPa | 0 mm | - | - | - |
| 1777389705 | 30.56° C | 20% | 741.1 hPa | 0 mm | - | - | - |
| 1777388793 | 31.11° C | 20% | 741.9 hPa | 0 mm | - | - | - |
| 1777387881 | 30° C | 23% | 740.6 hPa | 0 mm | - | - | - |
| 1777386970 | 30.56° C | 21% | 741.2 hPa | 0 mm | - | - | - |
| 1777386058 | 31.11° C | 21% | 742.1 hPa | 0 mm | - | - | - |
| 1777385146 | 30.56° C | 23% | 741.5 hPa | 0 mm | - | - | - |
| 1777384234 | 31.67° C | 23% | 742.2 hPa | 0 mm | - | - | - |
* Rain latest hour (hover to see other rain measurements)
** Current wind speed in m/s (hover to see current wind gust speed)